createdAt,value
2019-05-22T00:00:28.516Z,91.34
2019-05-22T00:02:58.826Z,90.81
2019-05-22T00:05:32.239Z,91.56
2019-05-22T00:10:54.105Z,89.86
2019-05-22T00:13:25.750Z,89.41
2019-05-22T00:15:57.282Z,90.10
2019-05-22T00:18:26.280Z,90.21
2019-05-22T00:20:55.891Z,89.82
2019-05-22T00:23:26.493Z,90.52
2019-05-22T00:25:55.287Z,90.30
2019-05-22T00:28:25.663Z,89.60
2019-05-22T00:30:55.768Z,89.73
2019-05-22T00:33:26.282Z,89.08
2019-05-22T00:35:56.707Z,89.56
2019-05-22T00:38:25.389Z,89.45
2019-05-22T00:40:55.572Z,88.81
2019-05-22T00:43:34.760Z,89.86
2019-05-22T00:46:09.531Z,90.58
2019-05-22T00:48:41.713Z,89.74
2019-05-22T00:51:29.179Z,90.93
2019-05-22T00:54:03.024Z,90.07
2019-05-22T00:56:33.208Z,90.62
2019-05-22T00:59:06.228Z,90.11
2019-05-22T01:01:38.946Z,90.85
2019-05-22T01:04:09.387Z,90.89
2019-05-22T01:06:38.577Z,90.62
2019-05-22T01:09:10.281Z,90.68
2019-05-22T01:11:39.772Z,89.70
2019-05-22T01:14:09.624Z,89.97
2019-05-22T01:16:39.784Z,90.18
2019-05-22T01:19:09.492Z,90.69
2019-05-22T01:21:38.377Z,90.51
2019-05-22T01:24:07.828Z,89.09
2019-05-22T01:26:36.920Z,90.02
2019-05-22T01:29:06.224Z,89.71
2019-05-22T01:31:37.572Z,89.26
2019-05-22T01:34:09.687Z,89.44
2019-05-22T01:36:49.505Z,90.61
2019-05-22T01:39:37.932Z,90.66
2019-05-22T01:42:11.439Z,90.80
2019-05-22T01:44:40.818Z,91.35
2019-05-22T01:47:13.477Z,91.06
2019-05-22T01:49:46.954Z,90.73
2019-05-22T01:52:17.073Z,90.28
2019-05-22T01:54:46.771Z,90.76
2019-05-22T01:57:16.039Z,91.17
2019-05-22T01:59:45.299Z,90.75
2019-05-22T02:02:14.446Z,91.66
2019-05-22T02:04:43.024Z,90.74
2019-05-22T02:07:11.893Z,90.78
2019-05-22T02:09:42.203Z,91.12
2019-05-22T02:12:17.578Z,89.97
2019-05-22T02:14:50.572Z,90.06
2019-05-22T02:17:22.520Z,89.74
2019-05-22T02:19:51.330Z,89.94
2019-05-22T02:22:20.168Z,90.85
2019-05-22T02:24:51.626Z,90.53
2019-05-22T02:27:21.382Z,90.17
2019-05-22T02:29:52.270Z,90.81
2019-05-22T02:32:21.253Z,90.15
2019-05-22T02:34:50.339Z,90.38
2019-05-22T02:37:20.855Z,90.19
2019-05-22T02:39:50.440Z,90.11
2019-05-22T02:42:49.400Z,90.26
2019-05-22T02:45:18.585Z,89.61
2019-05-22T02:47:49.169Z,90.72
2019-05-22T02:50:18.659Z,90.34
2019-05-22T02:52:48.101Z,90.26
2019-05-22T02:55:17.724Z,90.38
2019-05-22T02:57:46.628Z,89.99
2019-05-22T03:00:16.941Z,90.22
2019-05-22T03:02:54.310Z,89.79
2019-05-22T03:05:24.941Z,91.34
2019-05-22T03:07:54.721Z,91.07
2019-05-22T03:10:24.982Z,91.41
2019-05-22T03:12:53.797Z,91.63
2019-05-22T03:15:24.528Z,91.86
2019-05-22T03:18:02.387Z,91.45
2019-05-22T03:20:33.346Z,91.99
2019-05-22T03:23:35.236Z,91.59
2019-05-22T03:26:05.561Z,91.29
2019-05-22T03:28:34.996Z,91.91
2019-05-22T03:31:05.494Z,91.29
2019-05-22T03:33:34.621Z,92.36
2019-05-22T03:36:12.569Z,92.81
2019-05-22T03:38:41.979Z,93.89
2019-05-22T03:41:12.993Z,94.71
2019-05-22T03:43:45.131Z,93.53
2019-05-22T03:46:31.906Z,94.39
2019-05-22T03:49:01.176Z,93.76
2019-05-22T03:51:30.516Z,94.23
2019-05-22T03:53:59.175Z,94.59
2019-05-22T03:56:28.397Z,95.81
2019-05-22T03:58:57.377Z,95.77
2019-05-22T04:01:26.345Z,95.48
2019-05-22T04:03:55.609Z,95.13
2019-05-22T04:06:25.276Z,95.32
2019-05-22T04:08:54.314Z,95.21
2019-05-22T04:11:24.692Z,96.08
2019-05-22T04:13:53.655Z,96.53
2019-05-22T04:16:26.940Z,95.65
2019-05-22T04:18:57.879Z,95.43
2019-05-22T04:21:27.015Z,95.89
2019-05-22T04:23:55.620Z,95.95
2019-05-22T04:26:24.578Z,95.45
2019-05-22T04:28:55.918Z,97.09
2019-05-22T04:31:30.349Z,96.50
2019-05-22T04:33:59.769Z,96.47
2019-05-22T04:36:29.288Z,95.49
2019-05-22T04:39:00.763Z,96.39
2019-05-22T04:41:30.534Z,97.14
2019-05-22T04:43:59.562Z,96.57
2019-05-22T04:46:28.095Z,95.08
2019-05-22T04:48:57.693Z,95.59
2019-05-22T04:51:29.091Z,96.07
2019-05-22T04:53:58.294Z,97.11
2019-05-22T04:56:27.898Z,97.25
2019-05-22T04:58:57.487Z,95.98
2019-05-22T05:01:26.603Z,96.50
2019-05-22T05:03:55.301Z,96.96
2019-05-22T05:06:26.005Z,96.45
2019-05-22T05:08:55.223Z,96.31
2019-05-22T05:11:24.585Z,95.20
2019-05-22T05:13:53.453Z,95.62
2019-05-22T05:16:22.223Z,95.12
2019-05-22T05:18:50.803Z,95.33
2019-05-22T05:21:19.613Z,94.74
2019-05-22T05:23:48.398Z,94.36
2019-05-22T05:26:17.134Z,94.25
2019-05-22T05:28:46.396Z,94.33
2019-05-22T05:31:15.321Z,93.59
2019-05-22T05:33:56.104Z,94.10
2019-05-22T05:36:24.897Z,94.92
2019-05-22T05:38:54.761Z,94.52
2019-05-22T05:41:23.340Z,95.90
2019-05-22T05:43:52.258Z,95.50
2019-05-22T05:46:21.166Z,94.60
2019-05-22T05:48:50.488Z,94.17
2019-05-22T05:51:22.191Z,94.73
2019-05-22T05:54:06.107Z,94.69
2019-05-22T05:56:37.556Z,94.19
2019-05-22T05:59:07.642Z,93.84
2019-05-22T06:01:41.098Z,94.66
2019-05-22T06:04:10.135Z,94.52
2019-05-22T06:06:44.384Z,94.61
2019-05-22T06:09:21.313Z,96.04
2019-05-22T06:11:55.099Z,94.95
2019-05-22T06:14:30.135Z,94.82
2019-05-22T06:17:24.746Z,95.05
2019-05-22T06:19:59.910Z,95.45
2019-05-22T06:22:29.164Z,94.76
2019-05-22T06:25:03.950Z,95.26
2019-05-22T06:27:44.505Z,95.30
2019-05-22T06:30:20.202Z,94.96
2019-05-22T06:33:11.297Z,95.34
2019-05-22T06:35:42.484Z,96.71
2019-05-22T06:38:47.302Z,95.50
2019-05-22T06:41:17.255Z,95.42
2019-05-22T06:43:48.856Z,94.59
2019-05-22T06:46:37.076Z,95.71
2019-05-22T06:49:09.071Z,95.48
2019-05-22T06:51:37.596Z,95.11
2019-05-22T06:54:06.156Z,95.62
2019-05-22T06:56:34.698Z,94.35
2019-05-22T06:59:03.282Z,94.38
2019-05-22T07:01:32.915Z,94.80
2019-05-22T07:04:01.604Z,94.22
2019-05-22T07:06:30.147Z,94.44
2019-05-22T07:08:59.527Z,95.13
2019-05-22T07:11:28.087Z,94.95
2019-05-22T07:13:59.293Z,95.23
2019-05-22T07:16:28.202Z,95.48
2019-05-22T07:18:57.545Z,95.56
2019-05-22T07:21:34.036Z,95.33
2019-05-22T07:23:57.586Z,95.30
2019-05-22T07:26:26.528Z,95.94
2019-05-22T07:28:55.547Z,96.12
2019-05-22T07:31:24.144Z,95.94
2019-05-22T07:33:52.995Z,96.66
2019-05-22T07:36:22.743Z,96.50
2019-05-22T07:38:51.517Z,97.07
2019-05-22T07:41:20.821Z,96.14
2019-05-22T07:43:49.495Z,96.45
2019-05-22T07:46:18.099Z,96.24
2019-05-22T07:48:47.042Z,97.19
2019-05-22T07:51:17.577Z,95.84
2019-05-22T07:53:47.089Z,96.03
2019-05-22T07:56:16.980Z,95.42
2019-05-22T07:58:46.144Z,95.48
2019-05-22T08:01:16.109Z,95.13
2019-05-22T08:03:46.336Z,95.23
2019-05-22T08:06:15.843Z,95.20
2019-05-22T08:08:45.522Z,95.57
2019-05-22T08:11:14.592Z,95.03
2019-05-22T08:13:44.436Z,95.20
2019-05-22T08:16:13.897Z,95.86
2019-05-22T08:18:43.001Z,95.69
2019-05-22T08:21:12.119Z,95.92
2019-05-22T08:23:42.186Z,95.63
2019-05-22T08:26:12.569Z,94.60
2019-05-22T08:28:41.828Z,95.22
2019-05-22T08:31:12.259Z,95.10
2019-05-22T08:33:40.958Z,94.41
2019-05-22T08:36:09.702Z,94.15
2019-05-22T08:38:39.045Z,95.00
2019-05-22T08:41:09.270Z,95.30
2019-05-22T08:44:03.373Z,95.53
2019-05-22T08:46:11.119Z,96.14
2019-05-22T08:48:48.009Z,95.63
2019-05-22T08:51:13.665Z,95.40
2019-05-22T08:53:48.396Z,95.57
2019-05-22T08:56:14.629Z,95.67
2019-05-22T08:58:45.060Z,95.82
2019-05-22T09:01:15.130Z,94.81
2019-05-22T09:03:44.127Z,94.29
2019-05-22T09:06:12.833Z,94.06
2019-05-22T09:08:44.310Z,93.95
2019-05-22T09:11:13.206Z,94.56
2019-05-22T09:13:41.955Z,94.52
2019-05-22T09:16:12.470Z,94.03
2019-05-22T09:18:41.103Z,93.84
2019-05-22T09:21:10.321Z,93.69
2019-05-22T09:23:39.014Z,93.77
2019-05-22T09:26:08.523Z,93.12
2019-05-22T09:28:37.930Z,93.10
2019-05-22T09:31:06.431Z,92.86
2019-05-22T09:33:37.684Z,93.04
2019-05-22T09:36:06.995Z,92.58
2019-05-22T09:38:35.966Z,92.74
2019-05-22T09:41:04.966Z,92.63
2019-05-22T09:43:33.618Z,92.33
2019-05-22T09:46:03.455Z,92.23
2019-05-22T09:48:33.902Z,92.17
2019-05-22T09:51:02.744Z,91.58
2019-05-22T09:53:32.111Z,91.75
2019-05-22T09:56:00.971Z,91.47
2019-05-22T09:58:30.246Z,90.98
2019-05-22T10:00:59.478Z,90.98
2019-05-22T10:03:28.168Z,91.37
2019-05-22T10:05:56.886Z,92.03
2019-05-22T10:08:25.540Z,91.75
2019-05-22T10:10:54.676Z,91.68
2019-05-22T10:13:23.836Z,91.89
2019-05-22T10:15:52.797Z,91.99
2019-05-22T10:18:21.509Z,91.63
2019-05-22T10:20:55.130Z,92.13
2019-05-22T10:23:23.804Z,92.10
2019-05-22T10:25:52.500Z,91.39
2019-05-22T10:28:21.815Z,92.28
2019-05-22T10:30:51.419Z,92.12
2019-05-22T10:33:20.328Z,92.26
2019-05-22T10:35:49.967Z,92.36
2019-05-22T10:38:18.460Z,92.29
2019-05-22T10:40:47.859Z,92.38
2019-05-22T10:43:16.766Z,91.83
2019-05-22T10:45:46.432Z,91.77
2019-05-22T10:48:14.946Z,91.91
2019-05-22T10:50:43.590Z,92.71
2019-05-22T10:53:12.859Z,92.77
2019-05-22T10:55:41.990Z,91.98
2019-05-22T10:58:10.844Z,92.17
2019-05-22T11:00:39.778Z,92.33
2019-05-22T11:03:08.873Z,92.53
2019-05-22T11:05:37.419Z,93.56
2019-05-22T11:08:06.659Z,93.14
2019-05-22T11:10:35.597Z,93.02
2019-05-22T11:13:05.100Z,91.92
2019-05-22T11:15:33.831Z,91.76
2019-05-22T11:18:03.407Z,91.69
2019-05-22T11:20:33.279Z,91.96
2019-05-22T11:23:02.420Z,92.09
2019-05-22T11:25:31.478Z,91.45
2019-05-22T11:28:00.014Z,91.85
2019-05-22T11:30:29.572Z,92.17
2019-05-22T11:32:59.166Z,91.32
2019-05-22T11:35:29.145Z,91.20
2019-05-22T11:37:58.026Z,91.64
2019-05-22T11:40:26.998Z,92.98
2019-05-22T11:42:55.833Z,93.41
2019-05-22T11:45:25.112Z,93.16
2019-05-22T11:47:54.654Z,92.93
2019-05-22T11:50:25.581Z,93.79
2019-05-22T11:52:54.679Z,94.00
2019-05-22T11:55:40.768Z,93.85
2019-05-22T11:57:54.406Z,93.31
2019-05-22T12:00:23.631Z,94.67
2019-05-22T12:02:52.593Z,94.20
2019-05-22T12:05:23.001Z,94.01
2019-05-22T12:07:52.716Z,93.65
2019-05-22T12:10:22.725Z,93.35
2019-05-22T12:12:53.599Z,92.79
2019-05-22T12:15:26.627Z,92.49
2019-05-22T12:17:55.762Z,92.33
2019-05-22T12:20:26.333Z,92.51
2019-05-22T12:22:55.689Z,92.24
2019-05-22T12:25:25.824Z,91.81
2019-05-22T12:27:56.802Z,91.58
2019-05-22T12:30:26.979Z,91.18
2019-05-22T12:32:56.928Z,90.61
2019-05-22T12:35:26.664Z,90.65
2019-05-22T12:37:55.927Z,91.14
2019-05-22T12:40:25.130Z,91.96
2019-05-22T12:42:53.762Z,90.81
2019-05-22T12:45:28.902Z,90.72
2019-05-22T12:47:57.792Z,91.03
2019-05-22T12:50:29.971Z,91.26
2019-05-22T12:53:01.303Z,90.81
2019-05-22T12:55:30.677Z,90.77
2019-05-22T12:58:00.611Z,90.67
2019-05-22T13:00:31.451Z,90.55
2019-05-22T13:03:02.135Z,90.41
2019-05-22T13:05:31.413Z,90.10
2019-05-22T13:08:00.152Z,90.57
2019-05-22T13:10:29.389Z,90.61
2019-05-22T13:12:59.500Z,90.38
2019-05-22T13:15:28.368Z,90.96
2019-05-22T13:17:59.491Z,90.39
2019-05-22T13:20:42.039Z,90.11
2019-05-22T13:23:03.788Z,90.21
2019-05-22T13:25:35.996Z,90.21
2019-05-22T13:28:07.869Z,91.12
2019-05-22T13:30:39.391Z,90.05
2019-05-22T13:33:11.513Z,90.85
2019-05-22T13:35:41.825Z,90.97
2019-05-22T13:38:12.905Z,91.78
2019-05-22T13:40:42.682Z,91.53
2019-05-22T13:43:11.782Z,91.53
2019-05-22T13:45:40.475Z,91.53
2019-05-22T13:48:09.475Z,90.99
2019-05-22T13:50:38.451Z,91.78
2019-05-22T13:53:08.772Z,91.86
2019-05-22T13:55:37.319Z,92.24
2019-05-22T13:58:07.259Z,92.20
2019-05-22T14:00:37.541Z,92.20
2019-05-22T14:03:06.696Z,92.27
2019-05-22T14:05:36.495Z,91.71
2019-05-22T14:08:06.289Z,91.77
2019-05-22T14:10:35.273Z,92.42
2019-05-22T14:13:04.472Z,92.80
2019-05-22T14:15:50.026Z,92.68
2019-05-22T14:18:04.084Z,91.75
2019-05-22T14:20:32.654Z,92.62
2019-05-22T14:23:01.341Z,93.59
2019-05-22T14:25:30.840Z,93.42
2019-05-22T14:27:59.688Z,92.87
2019-05-22T14:30:28.771Z,92.66
2019-05-22T14:33:04.187Z,92.63
2019-05-22T14:35:46.886Z,92.39
2019-05-22T14:38:07.827Z,91.79
2019-05-22T14:40:37.986Z,92.25
2019-05-22T14:43:10.792Z,91.89
2019-05-22T14:45:39.442Z,91.28
2019-05-22T14:48:09.289Z,90.18
2019-05-22T14:50:38.325Z,90.65
2019-05-22T14:53:07.476Z,91.21
2019-05-22T14:55:37.206Z,91.09
2019-05-22T14:58:07.028Z,90.98
2019-05-22T15:00:36.829Z,90.88
2019-05-22T15:03:07.959Z,90.57
2019-05-22T15:05:38.266Z,90.73
2019-05-22T15:08:07.411Z,90.71
2019-05-22T15:10:37.315Z,90.30
2019-05-22T15:13:06.199Z,90.15
2019-05-22T15:15:40.084Z,90.98
2019-05-22T15:18:06.398Z,90.13
2019-05-22T15:20:41.690Z,89.87
2019-05-22T15:23:15.746Z,90.21
2019-05-22T15:25:44.412Z,89.42
2019-05-22T15:28:17.357Z,89.61
2019-05-22T15:30:49.110Z,89.34
2019-05-22T15:33:17.718Z,89.37
2019-05-22T15:35:48.810Z,89.21
2019-05-22T15:38:18.091Z,89.62
2019-05-22T15:40:49.509Z,89.19
2019-05-22T15:43:18.405Z,88.82
2019-05-22T15:45:49.675Z,88.77
2019-05-22T15:48:20.610Z,88.20
2019-05-22T15:50:51.301Z,88.00
2019-05-22T15:53:30.300Z,88.07
2019-05-22T15:56:00.569Z,88.41
2019-05-22T15:58:31.456Z,88.18
2019-05-22T16:01:04.278Z,88.05
2019-05-22T16:03:33.210Z,87.77
2019-05-22T16:06:02.946Z,88.07
2019-05-22T16:08:32.215Z,87.55
2019-05-22T16:11:02.141Z,87.21
2019-05-22T16:13:34.095Z,87.01
2019-05-22T16:16:06.433Z,86.81
2019-05-22T16:18:36.221Z,86.69
2019-05-22T16:21:06.890Z,86.44
2019-05-22T16:23:37.546Z,86.41
2019-05-22T16:26:09.984Z,86.13
2019-05-22T16:28:40.970Z,86.11
2019-05-22T16:31:12.564Z,86.51
2019-05-22T16:33:43.897Z,86.73
2019-05-22T16:36:14.217Z,86.67
2019-05-22T16:38:44.414Z,86.89
2019-05-22T16:41:13.586Z,87.02
2019-05-22T16:43:49.767Z,87.09
2019-05-22T16:46:16.939Z,87.03
2019-05-22T16:48:48.334Z,86.88
2019-05-22T16:51:18.516Z,86.52
2019-05-22T16:53:55.857Z,86.65
2019-05-22T16:56:26.457Z,86.12
2019-05-22T16:58:56.124Z,86.03
2019-05-22T17:01:26.198Z,86.11
2019-05-22T17:03:58.469Z,86.12
2019-05-22T17:06:30.848Z,86.04
2019-05-22T17:09:01.551Z,86.28
2019-05-22T17:11:31.615Z,86.06
2019-05-22T17:14:03.489Z,85.72
2019-05-22T17:16:34.270Z,85.88
2019-05-22T17:19:17.568Z,85.96
2019-05-22T17:21:35.654Z,85.90
2019-05-22T17:24:05.763Z,85.76
2019-05-22T17:26:35.290Z,85.78
2019-05-22T17:29:04.491Z,85.76
2019-05-22T17:31:33.434Z,85.75
2019-05-22T17:34:02.955Z,85.96
2019-05-22T17:36:32.003Z,85.66
2019-05-22T17:39:02.047Z,85.76
2019-05-22T17:41:32.601Z,85.51
2019-05-22T17:44:04.242Z,84.87
2019-05-22T17:46:34.482Z,84.55
2019-05-22T17:49:03.641Z,84.40
2019-05-22T17:51:32.226Z,84.30
2019-05-22T17:54:01.411Z,84.48
2019-05-22T17:56:30.519Z,83.58
2019-05-22T17:58:59.482Z,83.02
2019-05-22T18:01:28.819Z,82.78
2019-05-22T18:03:57.457Z,82.85
2019-05-22T18:06:26.340Z,82.51
2019-05-22T18:08:55.419Z,82.10
2019-05-22T18:11:24.344Z,82.43
2019-05-22T18:14:02.331Z,82.22
2019-05-22T18:16:31.700Z,81.75
2019-05-22T18:19:00.250Z,81.95
2019-05-22T18:21:28.726Z,81.80
2019-05-22T18:23:57.299Z,81.81
2019-05-22T18:26:26.037Z,81.92
2019-05-22T18:28:54.750Z,81.59
2019-05-22T18:31:23.635Z,80.78
2019-05-22T18:33:52.144Z,80.79
2019-05-22T18:36:20.623Z,80.53
2019-05-22T18:38:49.233Z,80.44
2019-05-22T18:41:17.832Z,80.83
2019-05-22T18:43:46.581Z,80.89
2019-05-22T18:46:15.335Z,80.87
2019-05-22T18:48:44.106Z,80.50
2019-05-22T18:51:13.335Z,80.65
2019-05-22T18:53:42.378Z,80.71
2019-05-22T18:56:11.653Z,80.17
2019-05-22T18:58:40.965Z,79.93
2019-05-22T19:01:09.688Z,80.05
2019-05-22T19:03:38.949Z,79.75
2019-05-22T19:06:07.636Z,79.88
2019-05-22T19:08:36.430Z,79.64
2019-05-22T19:11:05.274Z,79.39
2019-05-22T19:13:33.881Z,78.91
2019-05-22T19:16:02.456Z,79.01
2019-05-22T19:18:50.190Z,78.72
2019-05-22T19:21:18.700Z,78.62
2019-05-22T19:23:47.280Z,78.35
2019-05-22T19:26:15.942Z,78.17
2019-05-22T19:28:44.836Z,78.13
2019-05-22T19:31:13.891Z,78.27
2019-05-22T19:33:42.530Z,77.98
2019-05-22T19:36:11.188Z,78.33
2019-05-22T19:38:40.019Z,77.91
2019-05-22T19:41:08.781Z,77.89
2019-05-22T19:43:37.838Z,77.68
2019-05-22T19:46:06.990Z,77.68
2019-05-22T19:48:35.639Z,77.64
2019-05-22T19:51:04.977Z,77.76
2019-05-22T19:53:33.607Z,77.80
2019-05-22T19:56:02.460Z,77.14
2019-05-22T19:58:32.003Z,77.50
2019-05-22T20:01:00.550Z,77.47
2019-05-22T20:03:34.761Z,77.44
2019-05-22T20:06:03.527Z,77.15
2019-05-22T20:08:36.173Z,77.47
2019-05-22T20:11:03.830Z,77.72
2019-05-22T20:13:32.654Z,77.69
2019-05-22T20:16:01.203Z,77.87
2019-05-22T20:21:04.603Z,77.77
2019-05-22T20:23:36.407Z,77.82
2019-05-22T20:26:03.932Z,77.90
2019-05-22T20:28:33.035Z,77.73
2019-05-22T20:31:01.534Z,77.43
2019-05-22T20:33:30.017Z,77.51
2019-05-22T20:35:58.799Z,77.65
2019-05-22T20:38:27.761Z,77.85
2019-05-22T20:40:56.361Z,78.02
2019-05-22T20:43:25.641Z,78.09
2019-05-22T20:45:55.708Z,77.55
2019-05-22T20:48:27.192Z,77.69
2019-05-22T20:50:59.836Z,77.51
2019-05-22T20:53:30.322Z,77.65
2019-05-22T20:55:59.946Z,77.50
2019-05-22T20:58:30.663Z,77.73
2019-05-22T21:01:00.735Z,77.74
2019-05-22T21:03:31.822Z,77.87
2019-05-22T21:06:03.713Z,77.86
2019-05-22T21:08:32.401Z,77.90
2019-05-22T21:11:01.561Z,78.02
2019-05-22T21:13:31.693Z,77.89
2019-05-22T21:16:01.348Z,77.89
2019-05-22T21:18:31.984Z,78.03
2019-05-22T21:21:00.946Z,77.89
2019-05-22T21:23:29.892Z,77.91
2019-05-22T21:25:58.590Z,78.22
2019-05-22T21:28:28.058Z,78.05
2019-05-22T21:30:57.709Z,78.21
2019-05-22T21:33:26.907Z,77.98
2019-05-22T21:35:55.402Z,78.02
2019-05-22T21:38:24.841Z,78.30
2019-05-22T21:40:55.487Z,78.22
2019-05-22T21:43:24.529Z,78.35
2019-05-22T21:45:53.301Z,78.44
2019-05-22T21:48:22.720Z,78.32
2019-05-22T21:50:51.706Z,78.53
2019-05-22T21:53:20.896Z,78.35
2019-05-22T21:56:03.610Z,78.44
2019-05-22T21:58:20.599Z,78.40
2019-05-22T22:00:57.252Z,78.46
2019-05-22T22:03:47.785Z,78.88
2019-05-22T22:06:17.012Z,78.81
2019-05-22T22:08:47.927Z,78.71
2019-05-22T22:11:18.519Z,79.05
2019-05-22T22:13:47.929Z,78.84
2019-05-22T22:16:17.667Z,78.77
2019-05-22T22:18:46.707Z,79.31
2019-05-22T22:21:15.909Z,79.14
2019-05-22T22:23:45.491Z,79.02
2019-05-22T22:26:25.547Z,79.39
2019-05-22T22:28:45.093Z,78.98
2019-05-22T22:31:16.053Z,79.15
2019-05-22T22:33:47.606Z,78.97
2019-05-22T22:36:16.832Z,79.36
2019-05-22T22:38:46.622Z,79.42
2019-05-22T22:41:15.661Z,79.29
2019-05-22T22:43:48.489Z,79.08
2019-05-22T22:46:39.769Z,79.00
2019-05-22T22:49:11.626Z,79.33
2019-05-22T22:51:40.766Z,79.73
2019-05-22T22:54:09.961Z,79.20
2019-05-22T22:56:39.268Z,79.39
2019-05-22T22:59:08.243Z,79.36
2019-05-22T23:01:41.693Z,79.54
2019-05-22T23:04:12.289Z,79.56
2019-05-22T23:06:41.446Z,79.04
2019-05-22T23:09:11.718Z,79.39
2019-05-22T23:11:43.168Z,79.38
2019-05-22T23:14:12.837Z,79.56
2019-05-22T23:16:42.017Z,79.56
2019-05-22T23:19:15.228Z,79.47
2019-05-22T23:21:44.218Z,79.24
2019-05-22T23:24:13.256Z,79.38
2019-05-22T23:26:41.850Z,79.63
2019-05-22T23:29:11.737Z,79.55
2019-05-22T23:31:40.366Z,79.71
2019-05-22T23:34:10.099Z,79.48
2019-05-22T23:36:39.231Z,79.33
2019-05-22T23:39:13.017Z,79.60
2019-05-22T23:41:42.333Z,79.48
2019-05-22T23:44:12.464Z,79.41
2019-05-22T23:46:43.106Z,79.11
2019-05-22T23:49:12.853Z,79.45
2019-05-22T23:51:42.292Z,79.58
2019-05-22T23:54:10.961Z,79.17
2019-05-22T23:56:40.087Z,79.69
2019-05-22T23:59:10.612Z,79.78
